createdAt,value
2022-11-10T00:01:23.168Z,41.00
2022-11-10T00:03:43.907Z,41.00
2022-11-10T00:06:06.039Z,41.00
2022-11-10T00:08:26.452Z,41.00
2022-11-10T00:10:59.141Z,41.10
2022-11-10T00:13:19.388Z,41.00
2022-11-10T00:15:58.875Z,40.80
2022-11-10T00:18:19.736Z,40.90
2022-11-10T00:20:40.659Z,41.00
2022-11-10T00:23:01.181Z,41.60
2022-11-10T00:25:21.973Z,40.90
2022-11-10T00:27:42.570Z,41.00
2022-11-10T00:30:03.628Z,41.00
2022-11-10T00:32:24.333Z,40.90
2022-11-10T00:34:44.905Z,40.80
2022-11-10T00:37:05.274Z,40.70
2022-11-10T00:39:25.853Z,40.60
2022-11-10T00:41:46.106Z,40.80
2022-11-10T00:44:06.339Z,40.80
2022-11-10T00:46:26.860Z,40.80
2022-11-10T00:48:47.521Z,40.90
2022-11-10T00:51:09.521Z,40.90
2022-11-10T00:53:29.957Z,41.00
2022-11-10T00:55:50.586Z,41.10
2022-11-10T00:58:10.944Z,41.20
2022-11-10T01:00:31.353Z,41.10
2022-11-10T01:02:53.400Z,41.20
2022-11-10T01:05:13.722Z,41.30
2022-11-10T01:07:34.549Z,41.30
2022-11-10T01:09:54.868Z,41.30
2022-11-10T01:12:15.111Z,41.40
2022-11-10T01:14:35.242Z,41.40
2022-11-10T01:16:55.806Z,41.50
2022-11-10T01:19:16.563Z,41.60
2022-11-10T01:21:36.946Z,41.60
2022-11-10T01:23:57.662Z,41.60
2022-11-10T01:26:19.052Z,41.70
2022-11-10T01:28:39.856Z,41.60
2022-11-10T01:31:16.319Z,41.70
2022-11-10T01:33:37.214Z,41.80
2022-11-10T01:35:57.987Z,41.60
2022-11-10T01:38:19.420Z,41.70
2022-11-10T01:40:40.172Z,41.60
2022-11-10T01:43:00.830Z,41.60
2022-11-10T01:45:24.275Z,42.00
2022-11-10T01:47:45.097Z,41.90
2022-11-10T01:50:06.108Z,42.20
2022-11-10T01:52:28.984Z,42.50
2022-11-10T01:54:50.113Z,42.40
2022-11-10T01:57:13.654Z,42.50
2022-11-10T01:59:39.025Z,42.60
2022-11-10T02:02:13.833Z,42.60
2022-11-10T02:04:36.589Z,42.90
2022-11-10T02:07:02.826Z,42.70
2022-11-10T02:09:23.269Z,42.80
2022-11-10T02:11:45.176Z,43.00
2022-11-10T02:14:11.153Z,43.10
2022-11-10T02:16:32.576Z,43.00
2022-11-10T02:18:54.083Z,42.90
2022-11-10T02:21:19.920Z,43.20
2022-11-10T02:23:43.732Z,43.30
2022-11-10T02:26:06.466Z,43.10
2022-11-10T02:28:27.413Z,43.10
2022-11-10T02:30:48.159Z,43.10
2022-11-10T02:33:08.564Z,43.00
2022-11-10T02:35:29.066Z,43.10
2022-11-10T02:37:49.760Z,43.20
2022-11-10T02:40:10.680Z,43.10
2022-11-10T02:42:32.767Z,43.00
2022-11-10T02:44:53.446Z,43.00
2022-11-10T02:47:13.872Z,43.00
2022-11-10T02:49:34.895Z,43.00
2022-11-10T02:51:55.885Z,43.10
2022-11-10T02:54:16.417Z,43.30
2022-11-10T02:56:37.058Z,43.20
2022-11-10T02:58:58.302Z,43.20
2022-11-10T03:01:18.740Z,43.60
2022-11-10T03:03:39.904Z,43.70
2022-11-10T03:06:06.771Z,43.70
2022-11-10T03:08:27.286Z,43.60
2022-11-10T03:10:48.254Z,43.80
2022-11-10T03:13:08.926Z,43.70
2022-11-10T03:15:30.224Z,43.80
2022-11-10T03:17:51.748Z,43.80
2022-11-10T03:20:12.676Z,43.70
2022-11-10T03:22:33.615Z,43.60
2022-11-10T03:24:57.015Z,43.60
2022-11-10T03:27:17.364Z,43.60
2022-11-10T03:29:38.230Z,43.80
2022-11-10T03:32:00.081Z,43.70
2022-11-10T03:34:21.349Z,43.80
2022-11-10T03:36:45.480Z,43.60
2022-11-10T03:39:06.237Z,43.70
2022-11-10T03:41:27.524Z,43.90
2022-11-10T03:43:49.238Z,43.80
2022-11-10T03:46:09.997Z,43.90
2022-11-10T03:48:30.678Z,44.20
2022-11-10T03:50:52.736Z,44.40
2022-11-10T03:53:13.169Z,44.30
2022-11-10T03:55:34.138Z,44.40
2022-11-10T03:57:54.785Z,44.10
2022-11-10T04:00:16.264Z,43.90
2022-11-10T04:02:37.897Z,44.10
2022-11-10T04:05:17.509Z,44.00
2022-11-10T04:07:56.161Z,44.00
2022-11-10T04:10:16.343Z,44.10
2022-11-10T04:12:55.155Z,44.20
2022-11-10T04:15:34.361Z,44.20
2022-11-10T04:17:55.519Z,44.30
2022-11-10T04:20:18.277Z,44.50
2022-11-10T04:22:57.971Z,44.30
2022-11-10T04:25:18.730Z,44.40
2022-11-10T04:27:39.724Z,44.10
2022-11-10T04:30:00.114Z,44.20
2022-11-10T04:32:20.628Z,44.20
2022-11-10T04:34:41.283Z,44.30
2022-11-10T04:37:02.996Z,44.40
2022-11-10T04:39:24.140Z,44.50
2022-11-10T04:41:44.898Z,44.40
2022-11-10T04:44:05.919Z,44.40
2022-11-10T04:46:39.345Z,44.50
2022-11-10T04:49:01.212Z,44.40
2022-11-10T04:51:28.509Z,44.60
2022-11-10T04:53:49.266Z,44.40
2022-11-10T04:56:19.734Z,44.80
2022-11-10T04:58:40.517Z,44.90
2022-11-10T05:01:01.305Z,44.50
2022-11-10T05:03:22.545Z,44.30
2022-11-10T05:05:43.265Z,44.10
2022-11-10T05:08:04.419Z,44.00
2022-11-10T05:10:26.552Z,44.00
2022-11-10T05:12:47.353Z,44.00
2022-11-10T05:15:09.469Z,43.80
2022-11-10T05:17:32.561Z,43.50
2022-11-10T05:19:53.396Z,43.40
2022-11-10T05:22:17.351Z,43.50
2022-11-10T05:24:38.747Z,43.60
2022-11-10T05:26:59.629Z,43.90
2022-11-10T05:29:24.224Z,43.90
2022-11-10T05:31:49.112Z,44.10
2022-11-10T05:34:15.183Z,44.60
2022-11-10T05:36:37.098Z,44.70
2022-11-10T05:38:57.983Z,45.00
2022-11-10T05:41:18.928Z,45.10
2022-11-10T05:43:39.551Z,45.20
2022-11-10T05:46:00.234Z,45.30
2022-11-10T05:48:23.123Z,45.50
2022-11-10T05:50:44.685Z,45.70
2022-11-10T05:53:05.308Z,45.90
2022-11-10T05:55:28.494Z,45.90
2022-11-10T05:57:50.656Z,46.00
2022-11-10T06:00:13.782Z,46.20
2022-11-10T06:02:34.570Z,46.20
2022-11-10T06:04:55.205Z,46.20
2022-11-10T06:07:16.859Z,46.40
2022-11-10T06:09:38.045Z,46.50
2022-11-10T06:11:58.672Z,46.70
2022-11-10T06:14:19.400Z,46.90
2022-11-10T06:16:41.556Z,46.90
2022-11-10T06:19:05.472Z,47.00
2022-11-10T06:21:27.862Z,47.20
2022-11-10T06:23:48.307Z,47.20
2022-11-10T06:26:08.673Z,47.40
2022-11-10T06:28:29.313Z,47.60
2022-11-10T06:30:49.846Z,47.30
2022-11-10T06:33:10.856Z,47.40
2022-11-10T06:35:31.662Z,47.40
2022-11-10T06:38:06.163Z,47.30
2022-11-10T06:40:26.964Z,47.40
2022-11-10T06:42:47.383Z,47.60
2022-11-10T06:45:10.225Z,47.60
2022-11-10T06:47:31.063Z,47.60
2022-11-10T06:49:52.938Z,47.90
2022-11-10T06:52:13.360Z,48.10
2022-11-10T06:54:34.311Z,48.10
2022-11-10T06:56:55.243Z,48.10
2022-11-10T06:59:15.573Z,48.10
2022-11-10T07:01:36.246Z,48.10
2022-11-10T07:04:18.788Z,48.10
2022-11-10T07:06:38.494Z,48.10
2022-11-10T07:08:59.321Z,48.10
2022-11-10T07:11:19.605Z,48.20
2022-11-10T07:13:40.434Z,48.50
2022-11-10T07:16:05.149Z,48.50
2022-11-10T07:18:25.758Z,48.50
2022-11-10T07:20:46.581Z,48.80
2022-11-10T07:23:08.358Z,49.00
2022-11-10T07:25:30.910Z,48.90
2022-11-10T07:27:59.454Z,48.90
2022-11-10T07:30:19.898Z,48.80
2022-11-10T07:32:41.750Z,49.00
2022-11-10T07:35:02.811Z,49.20
2022-11-10T07:37:23.791Z,49.20
2022-11-10T07:39:43.981Z,49.00
2022-11-10T07:42:04.792Z,49.30
2022-11-10T07:44:26.325Z,49.10
2022-11-10T07:46:47.195Z,49.10
2022-11-10T07:49:08.854Z,49.10
2022-11-10T07:51:30.786Z,49.00
2022-11-10T07:53:51.783Z,48.70
2022-11-10T07:56:12.300Z,49.10
2022-11-10T07:58:34.108Z,48.80
2022-11-10T08:00:55.137Z,48.90
2022-11-10T08:03:20.476Z,49.10
2022-11-10T08:05:42.231Z,49.10
2022-11-10T08:08:03.558Z,49.10
2022-11-10T08:10:24.077Z,49.40
2022-11-10T08:12:44.728Z,49.40
2022-11-10T08:15:05.890Z,49.30
2022-11-10T08:17:26.915Z,49.20
2022-11-10T08:19:48.661Z,49.10
2022-11-10T08:22:09.281Z,49.30
2022-11-10T08:24:29.831Z,49.30
2022-11-10T08:26:50.117Z,49.30
2022-11-10T08:29:10.987Z,49.30
2022-11-10T08:31:34.180Z,49.20
2022-11-10T08:33:54.921Z,49.30
2022-11-10T08:36:15.783Z,49.50
2022-11-10T08:38:36.934Z,49.30
2022-11-10T08:40:57.651Z,49.40
2022-11-10T08:43:18.674Z,49.40
2022-11-10T08:45:42.384Z,49.40
2022-11-10T08:48:13.877Z,49.70
2022-11-10T08:50:34.934Z,49.80
2022-11-10T08:52:55.408Z,49.80
2022-11-10T08:55:16.337Z,49.90
2022-11-10T08:57:37.169Z,49.90
2022-11-10T08:59:58.012Z,49.80
2022-11-10T09:02:18.639Z,49.70
2022-11-10T09:04:39.257Z,50.10
2022-11-10T09:07:00.305Z,50.20
2022-11-10T09:09:21.047Z,50.40
2022-11-10T09:11:42.339Z,50.50
2022-11-10T09:14:02.580Z,50.60
2022-11-10T09:16:23.572Z,50.60
2022-11-10T09:18:43.806Z,50.70
2022-11-10T09:21:12.303Z,50.80
2022-11-10T09:23:32.974Z,51.00
2022-11-10T09:25:55.812Z,51.20
2022-11-10T09:28:17.598Z,51.40
2022-11-10T09:30:38.265Z,51.50
2022-11-10T09:33:01.202Z,51.60
2022-11-10T09:35:23.026Z,51.60
2022-11-10T09:37:44.848Z,51.60
2022-11-10T09:40:09.272Z,51.70
2022-11-10T09:42:41.544Z,51.60
2022-11-10T09:45:21.087Z,51.60
2022-11-10T09:48:00.100Z,51.70
2022-11-10T09:50:41.987Z,51.80
2022-11-10T09:53:08.727Z,51.60
2022-11-10T09:55:35.283Z,51.30
2022-11-10T09:57:58.515Z,51.70
2022-11-10T10:00:19.540Z,52.30
2022-11-10T10:02:45.423Z,52.20
2022-11-10T10:05:27.841Z,52.20
2022-11-10T10:08:06.634Z,52.40
2022-11-10T10:11:02.560Z,52.30
2022-11-10T10:13:32.311Z,52.30
2022-11-10T10:16:11.495Z,52.20
2022-11-10T10:19:06.387Z,52.10
2022-11-10T10:21:44.840Z,52.10
2022-11-10T10:24:15.200Z,52.10
2022-11-10T10:26:47.702Z,51.80
2022-11-10T10:29:11.237Z,51.70
2022-11-10T10:31:43.603Z,51.80
2022-11-10T10:34:05.096Z,51.50
2022-11-10T10:36:30.894Z,51.30
2022-11-10T10:39:02.065Z,51.30
2022-11-10T10:41:25.087Z,51.70
2022-11-10T10:43:48.775Z,51.20
2022-11-10T10:46:12.191Z,51.50
2022-11-10T10:48:33.028Z,51.30
2022-11-10T10:50:53.479Z,51.50
2022-11-10T10:53:19.259Z,51.50
2022-11-10T10:56:08.451Z,51.20
2022-11-10T10:58:36.767Z,51.30
2022-11-10T11:01:15.222Z,50.60
2022-11-10T11:03:40.459Z,51.00
2022-11-10T11:06:18.743Z,51.30
2022-11-10T11:08:38.993Z,50.70
2022-11-10T11:11:08.842Z,50.70
2022-11-10T11:13:30.090Z,51.00
2022-11-10T11:16:08.638Z,50.80
2022-11-10T11:18:31.830Z,50.80
2022-11-10T11:21:01.357Z,50.80
2022-11-10T11:24:06.831Z,50.60
2022-11-10T11:26:42.552Z,50.40
2022-11-10T11:29:15.130Z,49.90
2022-11-10T11:32:16.901Z,50.20
2022-11-10T11:34:47.347Z,50.70
2022-11-10T11:37:19.063Z,50.80
2022-11-10T11:40:02.073Z,50.30
2022-11-10T11:42:40.975Z,50.70
2022-11-10T11:45:06.512Z,50.90
2022-11-10T11:47:50.818Z,50.70
2022-11-10T11:50:32.282Z,50.50
2022-11-10T11:53:30.251Z,50.30
2022-11-10T11:56:04.012Z,50.00
2022-11-10T11:58:37.745Z,49.60
2022-11-10T12:01:16.828Z,49.50
2022-11-10T12:04:05.044Z,49.60
2022-11-10T12:06:45.755Z,49.70
2022-11-10T12:09:26.169Z,49.90
2022-11-10T12:12:01.078Z,50.00
2022-11-10T12:14:45.548Z,50.00
2022-11-10T12:17:20.402Z,49.90
2022-11-10T12:20:24.052Z,49.70
2022-11-10T12:23:15.246Z,49.40
2022-11-10T12:25:52.437Z,49.70
2022-11-10T12:28:27.868Z,49.10
2022-11-10T12:30:52.077Z,49.00
2022-11-10T12:33:34.971Z,49.60
2022-11-10T12:35:58.203Z,49.10
2022-11-10T12:38:28.159Z,49.00
2022-11-10T12:40:58.736Z,48.80
2022-11-10T12:43:23.441Z,49.50
2022-11-10T12:45:53.067Z,48.60
2022-11-10T12:48:15.925Z,48.40
2022-11-10T12:51:02.786Z,48.00
2022-11-10T12:53:40.665Z,47.90
2022-11-10T12:56:19.673Z,47.50
2022-11-10T12:58:40.307Z,47.80
2022-11-10T13:01:18.444Z,47.60
2022-11-10T13:03:40.756Z,47.10
2022-11-10T13:06:07.108Z,47.00
2022-11-10T13:08:47.153Z,46.90
2022-11-10T13:11:13.164Z,46.30
2022-11-10T13:13:56.645Z,45.30
2022-11-10T13:16:38.748Z,44.20
2022-11-10T13:19:00.961Z,44.10
2022-11-10T13:21:50.671Z,43.80
2022-11-10T13:24:24.812Z,43.60
2022-11-10T13:26:47.980Z,43.40
2022-11-10T13:29:37.702Z,43.00
2022-11-10T13:32:27.314Z,43.10
2022-11-10T13:34:48.328Z,42.90
2022-11-10T13:37:35.783Z,42.50
2022-11-10T13:40:18.145Z,42.50
2022-11-10T13:42:43.210Z,42.50
2022-11-10T13:45:28.762Z,42.50
2022-11-10T13:48:12.807Z,42.30
2022-11-10T13:50:57.943Z,42.50
2022-11-10T13:53:35.141Z,41.90
2022-11-10T13:56:04.727Z,41.50
2022-11-10T13:58:31.178Z,41.10
2022-11-10T14:01:17.265Z,41.40
2022-11-10T14:03:49.888Z,41.60
2022-11-10T14:06:13.554Z,41.50
2022-11-10T14:08:38.707Z,41.10
2022-11-10T14:11:03.177Z,41.20
2022-11-10T14:13:32.572Z,40.90
2022-11-10T14:15:54.179Z,40.90
2022-11-10T14:18:20.958Z,40.80
2022-11-10T14:20:46.418Z,40.80
2022-11-10T14:23:17.564Z,40.70
2022-11-10T14:25:43.893Z,40.20
2022-11-10T14:28:27.041Z,40.10
2022-11-10T14:30:54.928Z,40.20
2022-11-10T14:33:15.493Z,40.10
2022-11-10T14:36:01.981Z,40.10
2022-11-10T14:38:26.249Z,40.10
2022-11-10T14:40:47.598Z,40.10
2022-11-10T14:43:33.083Z,40.00
2022-11-10T14:45:53.685Z,40.00
2022-11-10T14:48:20.805Z,39.90
2022-11-10T14:50:42.020Z,39.90
2022-11-10T14:53:13.035Z,39.90
2022-11-10T14:55:36.209Z,40.00
2022-11-10T14:58:03.698Z,40.00
2022-11-10T15:00:27.049Z,40.00
2022-11-10T15:02:47.771Z,39.90
2022-11-10T15:05:14.336Z,40.00
2022-11-10T15:07:34.994Z,39.90
2022-11-10T15:10:41.656Z,39.90
2022-11-10T15:13:27.042Z,39.90
2022-11-10T15:15:49.255Z,39.90
2022-11-10T15:18:30.054Z,39.80
2022-11-10T15:21:04.700Z,39.80
2022-11-10T15:23:38.364Z,39.50
2022-11-10T15:25:58.818Z,39.50
2022-11-10T15:28:36.157Z,39.80
2022-11-10T15:30:59.928Z,39.90
2022-11-10T15:33:26.654Z,39.70
2022-11-10T15:35:47.131Z,39.30
2022-11-10T15:38:29.731Z,39.20
2022-11-10T15:40:51.800Z,39.30
2022-11-10T15:43:27.501Z,39.30
2022-11-10T15:45:52.754Z,39.30
2022-11-10T15:48:15.814Z,39.50
2022-11-10T15:50:36.447Z,39.80
2022-11-10T15:52:56.971Z,39.60
2022-11-10T15:55:24.491Z,39.60
2022-11-10T15:57:45.381Z,39.60
2022-11-10T16:00:06.489Z,39.60
2022-11-10T16:02:26.620Z,40.30
2022-11-10T16:04:47.928Z,39.60
2022-11-10T16:07:09.034Z,40.30
2022-11-10T16:09:29.341Z,39.90
2022-11-10T16:11:49.940Z,40.00
2022-11-10T16:14:14.441Z,40.10
2022-11-10T16:16:36.453Z,40.40
2022-11-10T16:18:56.778Z,40.70
2022-11-10T16:21:23.720Z,40.90
2022-11-10T16:23:44.270Z,40.90
2022-11-10T16:26:04.926Z,41.00
2022-11-10T16:28:27.795Z,41.10
2022-11-10T16:30:50.758Z,41.20
2022-11-10T16:33:16.405Z,41.30
2022-11-10T16:35:36.947Z,41.40
2022-11-10T16:37:57.315Z,41.40
2022-11-10T16:40:24.078Z,42.00
2022-11-10T16:42:45.134Z,41.10
2022-11-10T16:45:06.302Z,41.10
2022-11-10T16:47:30.993Z,41.10
2022-11-10T16:49:52.505Z,41.00
2022-11-10T16:52:15.960Z,41.20
2022-11-10T16:54:36.521Z,41.20
2022-11-10T16:56:57.137Z,41.10
2022-11-10T16:59:17.547Z,41.10
2022-11-10T17:01:40.176Z,41.30
2022-11-10T17:04:05.697Z,41.30
2022-11-10T17:06:28.602Z,41.30
2022-11-10T17:08:51.264Z,41.20
2022-11-10T17:11:11.958Z,41.30
2022-11-10T17:13:33.108Z,41.20
2022-11-10T17:16:03.329Z,41.10
2022-11-10T17:18:25.073Z,41.20
2022-11-10T17:20:52.458Z,41.00
2022-11-10T17:23:15.985Z,40.90
2022-11-10T17:25:38.596Z,40.90
2022-11-10T17:27:58.860Z,41.00
2022-11-10T17:30:20.480Z,41.00
2022-11-10T17:33:03.621Z,41.10
2022-11-10T17:35:22.539Z,41.10
2022-11-10T17:37:47.874Z,41.00
2022-11-10T17:40:29.122Z,41.10
2022-11-10T17:42:50.312Z,41.10
2022-11-10T17:45:22.688Z,41.00
2022-11-10T17:47:43.422Z,40.90
2022-11-10T17:50:04.092Z,40.80
2022-11-10T17:52:24.566Z,40.70
2022-11-10T17:54:45.961Z,40.50
2022-11-10T17:57:09.968Z,40.30
2022-11-10T17:59:31.298Z,40.30
2022-11-10T18:01:51.679Z,40.00
2022-11-10T18:04:13.979Z,39.90
2022-11-10T18:06:38.181Z,39.90
2022-11-10T18:08:59.067Z,39.90
2022-11-10T18:11:19.591Z,39.80
2022-11-10T18:13:42.001Z,39.80
2022-11-10T18:16:02.528Z,39.90
2022-11-10T18:18:23.129Z,40.20
2022-11-10T18:20:44.740Z,40.30
2022-11-10T18:23:07.510Z,40.50
2022-11-10T18:25:28.180Z,40.60
2022-11-10T18:27:48.786Z,40.60
2022-11-10T18:30:11.870Z,40.90
2022-11-10T18:32:33.265Z,40.80
2022-11-10T18:34:55.123Z,40.80
2022-11-10T18:37:16.972Z,40.70
2022-11-10T18:39:40.677Z,40.60
2022-11-10T18:42:01.172Z,40.70
2022-11-10T18:44:21.869Z,40.80
2022-11-10T18:46:45.936Z,40.80
2022-11-10T18:49:07.017Z,41.10
2022-11-10T18:51:27.466Z,41.00
2022-11-10T18:53:47.742Z,41.10
2022-11-10T18:56:08.387Z,41.50
2022-11-10T18:58:28.574Z,41.20
2022-11-10T19:00:49.061Z,41.40
2022-11-10T19:03:10.011Z,41.40
2022-11-10T19:05:30.809Z,41.60
2022-11-10T19:07:51.262Z,41.40
2022-11-10T19:10:14.595Z,41.50
2022-11-10T19:12:34.896Z,41.70
2022-11-10T19:14:55.023Z,41.60
2022-11-10T19:17:15.236Z,41.70
2022-11-10T19:19:35.654Z,41.70
2022-11-10T19:21:57.835Z,41.70
2022-11-10T19:24:27.793Z,41.50
2022-11-10T19:26:51.044Z,41.60
2022-11-10T19:29:11.568Z,41.50
2022-11-10T19:31:33.064Z,41.50
2022-11-10T19:33:55.799Z,41.50
2022-11-10T19:36:19.697Z,41.50
2022-11-10T19:38:41.869Z,41.40
2022-11-10T19:41:18.821Z,41.50
2022-11-10T19:43:42.478Z,41.80
2022-11-10T19:46:23.495Z,41.80
2022-11-10T19:48:44.587Z,41.90
2022-11-10T19:51:08.981Z,41.70
2022-11-10T19:53:30.870Z,42.00
2022-11-10T19:55:51.463Z,42.00
2022-11-10T19:58:11.991Z,41.90
2022-11-10T20:00:32.690Z,41.90
2022-11-10T20:02:52.988Z,42.10
2022-11-10T20:05:16.837Z,42.40
2022-11-10T20:07:55.664Z,42.30
2022-11-10T20:10:16.562Z,42.60
2022-11-10T20:12:39.548Z,42.60
2022-11-10T20:14:59.904Z,42.50
2022-11-10T20:17:20.459Z,42.60
2022-11-10T20:19:42.102Z,42.70
2022-11-10T20:22:02.628Z,42.70
2022-11-10T20:24:22.858Z,42.70
2022-11-10T20:26:44.337Z,42.70
2022-11-10T20:29:06.910Z,42.60
2022-11-10T20:31:27.419Z,42.80
2022-11-10T20:33:51.379Z,42.80
2022-11-10T20:36:19.962Z,42.90
2022-11-10T20:38:41.958Z,42.90
2022-11-10T20:41:18.086Z,43.00
2022-11-10T20:43:39.517Z,43.00
2022-11-10T20:45:59.895Z,43.20
2022-11-10T20:48:20.429Z,43.20
2022-11-10T20:50:41.167Z,43.20
2022-11-10T20:53:02.486Z,43.30
2022-11-10T20:55:51.749Z,43.10
2022-11-10T20:58:03.473Z,43.90
2022-11-10T21:00:23.925Z,43.30
2022-11-10T21:02:44.587Z,43.20
2022-11-10T21:05:05.880Z,43.10
2022-11-10T21:07:27.533Z,43.20
2022-11-10T21:09:48.597Z,43.10
2022-11-10T21:12:30.648Z,43.30
2022-11-10T21:14:51.540Z,43.20
2022-11-10T21:17:12.262Z,43.30
2022-11-10T21:19:34.430Z,43.40
2022-11-10T21:21:55.056Z,43.30
2022-11-10T21:24:15.841Z,43.50
2022-11-10T21:26:37.597Z,43.50
2022-11-10T21:28:58.589Z,43.60
2022-11-10T21:31:19.093Z,43.70
2022-11-10T21:33:39.288Z,43.90
2022-11-10T21:36:08.517Z,44.00
2022-11-10T21:38:29.171Z,43.90
2022-11-10T21:40:50.846Z,43.60
2022-11-10T21:43:11.364Z,43.70
2022-11-10T21:45:31.856Z,43.50
2022-11-10T21:47:54.928Z,43.30
2022-11-10T21:50:16.460Z,43.40
2022-11-10T21:52:36.663Z,43.60
2022-11-10T21:54:57.617Z,43.50
2022-11-10T21:57:18.295Z,43.60
2022-11-10T21:59:38.949Z,43.70
2022-11-10T22:01:59.797Z,43.70
2022-11-10T22:04:20.403Z,43.50
2022-11-10T22:07:00.220Z,43.70
2022-11-10T22:09:42.643Z,43.70
2022-11-10T22:12:21.685Z,43.50
2022-11-10T22:15:01.382Z,43.40
2022-11-10T22:17:40.778Z,43.40
2022-11-10T22:20:01.987Z,43.30
2022-11-10T22:22:22.565Z,43.20
2022-11-10T22:24:42.908Z,43.30
2022-11-10T22:27:04.519Z,43.80
2022-11-10T22:29:34.101Z,44.30
2022-11-10T22:31:56.563Z,43.70
2022-11-10T22:34:18.187Z,43.70
2022-11-10T22:36:39.464Z,43.70
2022-11-10T22:39:03.578Z,44.00
2022-11-10T22:41:43.337Z,43.90
2022-11-10T22:44:04.717Z,44.50
2022-11-10T22:46:27.939Z,44.10
2022-11-10T22:48:48.529Z,44.10
2022-11-10T22:51:09.134Z,44.00
2022-11-10T22:53:35.724Z,44.00
2022-11-10T22:56:00.761Z,44.00
2022-11-10T22:58:21.678Z,44.10
2022-11-10T23:00:43.640Z,44.20
2022-11-10T23:03:07.805Z,44.10
2022-11-10T23:05:28.309Z,44.20
2022-11-10T23:07:48.986Z,44.20
2022-11-10T23:10:09.324Z,44.20
2022-11-10T23:12:30.707Z,44.30
2022-11-10T23:14:52.357Z,44.40
2022-11-10T23:17:14.146Z,44.70
2022-11-10T23:19:34.799Z,44.50
2022-11-10T23:21:55.015Z,44.70
2022-11-10T23:24:18.240Z,44.50
2022-11-10T23:26:38.976Z,44.40
2022-11-10T23:28:59.763Z,44.30
2022-11-10T23:31:23.051Z,44.10
2022-11-10T23:33:45.209Z,44.20
2022-11-10T23:36:07.360Z,44.30
2022-11-10T23:38:31.034Z,44.20
2022-11-10T23:40:56.212Z,44.40
2022-11-10T23:43:16.660Z,44.40
2022-11-10T23:46:05.375Z,44.50
2022-11-10T23:48:18.120Z,44.50
2022-11-10T23:50:40.279Z,44.50
2022-11-10T23:53:04.591Z,44.50
2022-11-10T23:55:25.340Z,44.80
2022-11-10T23:57:47.782Z,44.80
